Time;durP1;ratioP1;P1;durP2;ratioP2;P2;SDS_P1;SDS_P2;PMS_P1;PMS_P2;Temp;Humidity;BMP_temperature;BMP_pressure;BME280_temperature;BME280_humidity;BME280_pressure;Samples;Min_cycle;Max_cycle;Signal;HPM_P1;HPM_P2
2022/01/30 00:00:33;;;;;;;28.58;4.00;;;;;;;6.87;69.82;102612.13;5036610;28;20028;-62
2022/01/30 00:02:59;;;;;;;29.02;4.00;;;;;;;6.91;69.43;102622.06;5054490;28;20020;-62
2022/01/30 00:05:24;;;;;;;25.52;3.85;;;;;;;6.89;69.38;102623.09;5054409;28;20482;-61
2022/01/30 00:07:50;;;;;;;24.50;3.75;;;;;;;6.87;69.66;102630.09;5054405;28;20017;-61
2022/01/30 00:10:15;;;;;;;28.73;3.40;;;;;;;6.84;69.30;102628.59;5036570;28;20360;-61
2022/01/30 00:12:52;;;;;;;33.08;4.35;;;;;;;6.77;69.62;102635.13;5053862;28;20056;-62
2022/01/30 00:15:18;;;;;;;28.65;3.67;;;;;;;6.76;69.32;102624.03;5053691;28;20048;-61
2022/01/30 00:17:51;;;;;;;24.60;4.47;;;;;;;6.81;69.48;102635.72;5054229;28;20081;-62
2022/01/30 00:20:24;;;;;;;26.75;4.15;;;;;;;6.76;70.10;102633.47;5054537;28;20145;-62
2022/01/30 00:23:07;;;;;;;26.73;3.90;;;;;;;6.78;69.43;102642.72;5054147;28;20021;-62
2022/01/30 00:25:44;;;;;;;22.45;3.75;;;;;;;6.64;69.88;102631.84;5036127;28;20116;-62
2022/01/30 00:28:12;;;;;;;31.08;4.10;;;;;;;6.66;70.88;102635.13;5053767;28;20029;-62
2022/01/30 00:30:37;;;;;;;32.08;4.65;;;;;;;6.61;70.67;102630.31;5053641;28;20021;-61
2022/01/30 00:33:03;;;;;;;37.55;5.05;;;;;;;6.52;71.87;102643.88;5053582;28;20029;-61
2022/01/30 00:35:29;;;;;;;28.75;4.00;;;;;;;6.55;70.98;102633.34;5053743;28;20041;-62
2022/01/30 00:37:55;;;;;;;21.52;3.83;;;;;;;6.49;70.90;102650.03;5053879;28;20071;-62
2022/01/30 00:40:20;;;;;;;27.92;3.35;;;;;;;6.62;70.68;102642.25;5037083;28;20394;-62
2022/01/30 00:42:46;;;;;;;27.02;3.55;;;;;;;6.53;71.10;102641.19;5053871;28;20471;-62
2022/01/30 00:45:11;;;;;;;23.20;3.50;;;;;;;6.51;70.91;102635.34;5035861;28;20074;-62
2022/01/30 00:47:36;;;;;;;34.58;4.30;;;;;;;6.49;71.11;102638.97;5054224;28;20024;-62
2022/01/30 00:50:02;;;;;;;21.30;3.33;;;;;;;6.42;71.03;102632.66;5053674;28;20070;-61
2022/01/30 00:52:28;;;;;;;30.27;4.18;;;;;;;6.43;71.62;102647.13;5053559;28;20082;-63
2022/01/30 00:54:53;;;;;;;31.85;4.43;;;;;;;6.46;70.79;102642.56;5053623;28;20423;-61
2022/01/30 00:57:18;;;;;;;29.00;3.65;;;;;;;6.44;70.99;102641.84;5053510;28;20036;-62
2022/01/30 00:59:44;;;;;;;26.40;4.10;;;;;;;6.41;71.41;102638.69;5053568;28;20482;-61
2022/01/30 01:02:09;;;;;;;32.35;4.90;;;;;;;6.41;71.08;102644.66;5053512;28;20017;-63
2022/01/30 01:04:34;;;;;;;32.58;3.83;;;;;;;6.37;71.09;102639.88;5053590;28;20024;-62
2022/01/30 01:07:00;;;;;;;27.08;4.15;;;;;;;6.39;70.95;102638.00;5035641;28;20078;-62
2022/01/30 01:09:33;;;;;;;20.25;3.85;;;;;;;6.39;70.52;102641.41;5053683;28;20032;-62
2022/01/30 01:25:38;;;;;;;23.67;4.32;;;;;;;6.30;70.90;102647.19;5053230;28;20078;-62
2022/01/30 01:28:04;;;;;;;19.45;3.45;;;;;;;6.38;70.25;102642.31;5035407;28;20028;-61
2022/01/30 01:30:29;;;;;;;29.50;4.45;;;;;;;6.33;70.31;102654.69;5035256;28;20050;-63
2022/01/30 01:32:54;;;;;;;19.85;3.08;;;;;;;6.23;69.93;102623.72;5053108;28;20068;-62
2022/01/30 01:35:20;;;;;;;29.38;3.85;;;;;;;6.33;70.37;102650.38;5053063;28;20025;-61
2022/01/30 01:37:51;;;;;;;31.73;3.63;;;;;;;6.32;71.06;102658.19;5053075;28;20016;-61
2022/01/30 01:40:17;;;;;;;22.73;3.70;;;;;;;6.33;71.95;102657.28;5053049;28;20529;-62
2022/01/30 01:42:43;;;;;;;32.17;3.67;;;;;;;6.28;71.89;102665.28;5053104;28;20017;-61
2022/01/30 01:45:09;;;;;;;24.38;3.90;;;;;;;6.29;72.21;102669.50;5053050;28;20056;-61
2022/01/30 01:47:34;;;;;;;24.00;3.97;;;;;;;6.30;73.24;102665.16;5037349;28;20051;-62
2022/01/30 01:50:00;;;;;;;28.88;3.53;;;;;;;6.25;73.71;102665.53;5057275;28;20021;-62
2022/01/30 01:52:26;;;;;;;32.03;4.32;;;;;;;6.29;73.76;102668.69;5056904;28;20017;-61
2022/01/30 01:54:57;;;;;;;30.08;3.53;;;;;;;6.27;72.83;102668.81;5057211;28;20025;-61
2022/01/30 01:57:23;;;;;;;25.45;3.90;;;;;;;6.27;72.80;102667.97;5038983;28;20112;-61
2022/01/30 01:59:49;;;;;;;23.10;3.53;;;;;;;6.26;73.13;102669.72;5039036;28;20483;-62
2022/01/30 02:02:15;;;;;;;17.02;3.15;;;;;;;6.24;73.39;102655.34;5056797;28;20051;-61
2022/01/30 02:04:42;;;;;;;24.58;3.17;;;;;;;6.16;73.94;102673.91;5056703;28;20521;-62
2022/01/30 02:09:52;;;;;;;22.38;3.08;;;;;;;6.14;72.53;102664.66;5057319;28;20438;-62
2022/01/30 02:12:23;;;;;;;25.23;3.85;;;;;;;6.06;72.48;102660.91;5056717;28;20021;-62
2022/01/30 02:25:49;;;;;;;11.68;2.47;;;;;;;5.97;69.34;102664.13;5056975;28;20159;-61
2022/01/30 02:28:18;;;;;;;13.88;2.38;;;;;;;5.84;69.56;102646.22;5056632;28;20029;-62
2022/01/30 02:30:54;;;;;;;20.10;2.35;;;;;;;5.88;69.98;102657.06;5056310;28;20048;-62
2022/01/30 02:33:23;;;;;;;18.90;2.95;;;;;;;5.96;70.16;102666.81;5056231;28;20025;-62
2022/01/30 02:35:49;;;;;;;13.98;2.17;;;;;;;5.93;70.52;102674.69;5038379;28;20029;-61
2022/01/30 02:38:16;;;;;;;14.57;2.35;;;;;;;5.89;71.52;102684.34;5056120;28;20460;-62
2022/01/30 02:40:43;;;;;;;20.77;3.10;;;;;;;5.84;70.88;102671.88;5056168;28;20032;-62
2022/01/30 02:43:09;;;;;;;15.85;2.40;;;;;;;5.87;71.59;102675.97;5056067;28;20021;-61
2022/01/30 02:45:38;;;;;;;19.70;2.70;;;;;;;5.84;71.56;102676.16;5056035;28;20370;-62
2022/01/30 02:50:50;;;;;;;18.70;2.95;;;;;;;5.81;72.37;102663.56;5056272;28;20064;-62
2022/01/30 02:53:16;;;;;;;17.90;3.05;;;;;;;5.79;72.55;102673.94;5056127;28;20074;-62
2022/01/30 02:55:41;;;;;;;20.20;3.25;;;;;;;5.80;73.51;102675.56;5037996;28;20471;-61
2022/01/30 02:58:06;;;;;;;24.25;2.88;;;;;;;5.74;73.10;102686.28;5037464;28;20452;-62
2022/01/30 03:00:32;;;;;;;18.23;2.65;;;;;;;5.76;73.29;102688.75;5055736;28;20060;-61
2022/01/30 03:02:57;;;;;;;26.02;3.25;;;;;;;5.77;73.50;102682.66;5055759;28;20025;-62
2022/01/30 03:05:23;;;;;;;18.52;2.60;;;;;;;5.76;73.31;102687.00;5055815;28;20499;-62
2022/01/30 03:07:48;;;;;;;20.10;2.88;;;;;;;5.72;73.51;102682.16;5055641;28;20029;-62
2022/01/30 03:10:14;;;;;;;20.50;2.80;;;;;;;5.76;73.42;102683.59;5037726;28;20025;-62
2022/01/30 03:12:40;;;;;;;15.45;2.40;;;;;;;5.73;72.90;102687.22;5037510;28;20020;-60
2022/01/30 03:15:06;;;;;;;21.08;2.55;;;;;;;5.75;72.44;102667.38;5055226;28;20052;-61
2022/01/30 03:17:32;;;;;;;20.50;2.50;;;;;;;5.83;71.74;102684.81;5055767;28;20340;-62
2022/01/30 03:19:57;;;;;;;23.40;2.53;;;;;;;5.75;72.00;102689.66;5037493;28;20079;-62
2022/01/30 03:22:24;;;;;;;16.63;2.72;;;;;;;5.69;71.72;102680.63;5055374;28;20032;-62
2022/01/30 03:24:49;;;;;;;20.25;2.95;;;;;;;5.72;71.83;102688.13;5037449;28;20060;-61
2022/01/30 03:27:15;;;;;;;20.52;2.97;;;;;;;5.72;71.58;102688.13;5055275;28;20036;-62
2022/01/30 03:29:41;;;;;;;10.98;2.50;;;;;;;5.75;71.90;102697.34;5037325;28;20021;-62
2022/01/30 03:32:07;;;;;;;21.50;2.60;;;;;;;5.71;70.66;102696.75;5055049;28;20025;-62
2022/01/30 03:34:33;;;;;;;20.95;3.60;;;;;;;5.62;71.04;102692.28;5037228;28;20032;-62
2022/01/30 03:36:58;;;;;;;19.25;2.70;;;;;;;5.67;70.47;102690.22;5037519;28;20128;-61
2022/01/30 03:39:24;;;;;;;20.25;2.25;;;;;;;5.68;70.64;102702.09;5055471;28;20470;-61
2022/01/30 03:41:49;;;;;;;22.42;2.88;;;;;;;5.66;71.14;102703.94;5037051;28;20013;-62
2022/01/30 03:44:15;;;;;;;15.90;2.35;;;;;;;5.61;70.96;102704.28;5037068;28;20107;-62
2022/01/30 03:46:41;;;;;;;19.30;2.80;;;;;;;5.69;71.50;102710.59;5037013;28;20543;-62
2022/01/30 03:49:06;;;;;;;17.42;2.35;;;;;;;5.58;71.75;102713.91;5054787;28;20060;-63
2022/01/30 03:51:31;;;;;;;26.95;3.00;;;;;;;5.57;71.73;102709.72;5055182;28;20043;-62
2022/01/30 03:53:56;;;;;;;18.20;3.20;;;;;;;5.62;72.03;102710.22;5054809;28;20086;-61
2022/01/30 03:56:22;;;;;;;12.98;2.50;;;;;;;5.55;72.91;102717.53;5054704;28;20467;-62
2022/01/30 03:58:47;;;;;;;22.08;2.58;;;;;;;5.58;72.92;102719.88;5054670;28;20036;-61
2022/01/30 04:01:12;;;;;;;26.25;3.40;;;;;;;5.63;72.56;102727.25;5054866;28;20025;-62
2022/01/30 04:03:38;;;;;;;20.70;3.03;;;;;;;5.57;72.52;102725.09;5054563;28;20383;-62
2022/01/30 04:06:05;;;;;;;14.68;2.40;;;;;;;5.52;73.33;102716.91;5054526;28;20025;-62
2022/01/30 04:08:30;;;;;;;17.75;3.03;;;;;;;5.56;73.06;102718.34;5054523;28;20028;-62
2022/01/30 04:10:56;;;;;;;19.67;2.95;;;;;;;5.54;73.31;102725.31;5053372;28;20361;-61
2022/01/30 04:13:21;;;;;;;19.95;2.38;;;;;;;5.55;73.25;102726.94;5036411;28;20036;-62
2022/01/30 04:15:47;;;;;;;24.40;2.38;;;;;;;5.57;72.78;102731.06;5054286;28;20057;-60
2022/01/30 04:18:12;;;;;;;21.42;3.10;;;;;;;5.69;72.11;102733.69;5054563;28;20033;-62
2022/01/30 04:20:38;;;;;;;16.42;2.38;;;;;;;5.80;71.54;102729.44;5036316;28;20387;-62
2022/01/30 04:23:03;;;;;;;19.23;2.40;;;;;;;5.89;72.59;102745.94;5054440;28;20028;-62
2022/01/30 04:25:28;;;;;;;18.27;2.83;;;;;;;5.92;72.83;102742.34;5036319;28;20083;-62
2022/01/30 04:27:54;;;;;;;19.67;2.88;;;;;;;5.94;72.98;102737.97;5054107;28;20029;-62
2022/01/30 04:30:21;;;;;;;13.75;2.50;;;;;;;5.80;73.51;102746.59;5036137;28;20130;-62
2022/01/30 04:32:46;;;;;;;19.83;2.70;;;;;;;5.68;74.62;102752.59;5053930;28;20029;-61
2022/01/30 04:35:20;;;;;;;17.35;2.40;;;;;;;5.58;74.78;102748.09;5036055;28;20031;-62
2022/01/30 04:38:16;;;;;;;19.92;2.90;;;;;;;5.56;74.95;102767.09;5054231;28;20079;-61
2022/01/30 05:02:36;;;;;;;24.17;2.95;;;;;;;5.41;73.90;102780.03;5054333;28;20025;-62
2022/01/30 05:07:37;;;;;;;22.67;3.20;;;;;;;5.42;73.82;102794.47;5053908;28;20041;-61
2022/01/30 05:10:04;;;;;;;23.70;3.75;;;;;;;5.37;74.12;102795.72;5053771;28;20033;-61
2022/01/30 05:12:37;;;;;;;29.35;3.05;;;;;;;5.37;74.50;102796.53;5053249;28;20021;-62
2022/01/30 05:15:02;;;;;;;;;;;;;;;5.40;74.69;102801.44;5035702;28;20053;-61
2022/01/30 05:17:28;;;;;;;24.25;2.95;;;;;;;5.34;74.74;102809.56;5054029;28;19916;-61
2022/01/30 05:19:53;;;;;;;26.77;3.03;;;;;;;5.33;75.50;102807.09;5035796;28;20025;-61
2022/01/30 05:22:19;;;;;;;28.67;3.72;;;;;;;5.35;74.74;102808.66;5052959;28;20017;-62
2022/01/30 05:24:44;;;;;;;26.00;3.47;;;;;;;5.36;74.71;102820.53;5053157;28;20021;-61
2022/01/30 05:27:11;;;;;;;26.13;3.35;;;;;;;5.30;75.03;102813.25;5035351;28;20032;-61
2022/01/30 05:29:36;;;;;;;26.30;3.05;;;;;;;5.33;75.29;102820.75;5053392;28;20112;-61
2022/01/30 05:32:02;;;;;;;23.50;3.45;;;;;;;5.26;75.78;102824.63;5053375;28;20155;-61
2022/01/30 05:34:30;;;;;;;23.75;3.53;;;;;;;5.25;75.05;102817.84;5053138;28;20087;-62
2022/01/30 05:36:56;;;;;;;20.23;2.92;;;;;;;5.25;74.91;102820.41;5035259;28;20029;-62
2022/01/30 05:39:21;;;;;;;28.35;3.35;;;;;;;5.21;75.83;102824.13;5053087;28;20112;-62
2022/01/30 05:41:47;;;;;;;24.10;3.47;;;;;;;5.21;75.43;102829.25;5053392;28;20063;-61
2022/01/30 05:44:18;;;;;;;24.73;2.90;;;;;;;5.17;76.08;102828.59;5035188;28;20025;-61
2022/01/30 05:46:51;;;;;;;22.85;3.30;;;;;;;5.19;75.55;102828.53;5053454;28;20407;-62
2022/01/30 05:49:16;;;;;;;29.27;4.72;;;;;;;5.18;75.08;102825.16;5052983;28;20025;-62
2022/01/30 05:51:42;;;;;;;23.02;3.38;;;;;;;5.17;75.59;102831.19;5034605;28;20025;-62
2022/01/30 05:54:07;;;;;;;22.63;3.25;;;;;;;5.08;75.78;102829.22;5053019;28;20486;-62
2022/01/30 05:56:33;;;;;;;22.23;4.55;;;;;;;5.14;75.22;102835.69;5035040;28;20454;-60
2022/01/30 05:59:00;;;;;;;20.25;3.10;;;;;;;5.18;75.03;102834.59;5052956;28;20434;-62
2022/01/30 06:01:25;;;;;;;23.05;3.88;;;;;;;5.07;76.02;102837.84;5053000;28;20025;-61
2022/01/30 06:03:51;;;;;;;25.42;3.33;;;;;;;5.15;75.47;102832.19;5035150;28;20380;-62
2022/01/30 06:06:16;;;;;;;28.42;3.85;;;;;;;5.04;76.42;102835.47;5052765;28;20021;-61
2022/01/30 06:09:00;;;;;;;27.77;3.55;;;;;;;5.05;76.37;102847.38;5053268;28;20048;-61
2022/01/30 06:11:25;;;;;;;29.05;4.10;;;;;;;5.08;75.94;102834.34;5052879;28;20024;-60
2022/01/30 06:13:51;;;;;;;31.00;3.60;;;;;;;5.02;76.13;102847.56;5053403;28;20079;-61
2022/01/30 06:16:16;;;;;;;29.52;3.88;;;;;;;5.01;75.72;102842.56;5052426;28;20060;-62
2022/01/30 06:18:43;;;;;;;25.85;3.50;;;;;;;4.98;76.32;102848.69;5034777;28;20021;-62
2022/01/30 06:21:09;;;;;;;26.52;3.80;;;;;;;4.93;75.89;102848.97;5052587;28;20025;-61
2022/01/30 06:23:36;;;;;;;20.52;2.85;;;;;;;4.92;75.71;102852.47;5052518;28;20020;-61
2022/01/30 06:26:01;;;;;;;29.63;3.42;;;;;;;4.89;76.28;102857.78;5034742;28;20044;-61
2022/01/30 06:28:26;;;;;;;28.27;3.97;;;;;;;4.96;75.59;102853.09;5052960;28;20456;-61
2022/01/30 06:30:52;;;;;;;27.42;3.63;;;;;;;4.97;75.93;102864.97;5034654;28;20025;-61
2022/01/30 06:33:17;;;;;;;31.70;3.83;;;;;;;5.01;75.38;102870.75;5052560;28;20029;-61
2022/01/30 06:35:42;;;;;;;33.03;3.95;;;;;;;5.08;75.07;102862.53;5038872;28;20098;-61
2022/01/30 06:38:07;;;;;;;32.60;3.58;;;;;;;5.05;74.85;102862.75;5038187;28;20033;-61
2022/01/30 06:40:33;;;;;;;21.20;3.08;;;;;;;5.00;74.82;102872.47;5056068;28;20074;-61
2022/01/30 06:42:58;;;;;;;25.38;3.95;;;;;;;4.98;75.12;102875.13;5038083;28;20039;-61
2022/01/30 06:45:24;;;;;;;28.77;3.70;;;;;;;5.04;74.81;102873.91;5056175;28;20056;-62
2022/01/30 06:47:51;;;;;;;24.48;3.80;;;;;;;4.94;74.74;102867.72;5056014;28;20013;-61
2022/01/30 06:50:17;;;;;;;30.30;3.63;;;;;;;4.95;75.07;102870.22;5056168;28;20028;-61
2022/01/30 06:52:42;;;;;;;29.58;3.90;;;;;;;4.92;74.52;102865.28;5038241;28;20036;-61
2022/01/30 06:55:08;;;;;;;27.85;3.80;;;;;;;4.91;74.63;102867.94;5056371;28;20013;-62
2022/01/30 06:57:34;;;;;;;31.88;4.05;;;;;;;4.85;75.08;102866.59;5038206;28;20098;-62
2022/01/30 06:59:59;;;;;;;29.55;4.15;;;;;;;4.91;74.48;102876.44;5056378;28;20032;-62
2022/01/30 07:02:24;;;;;;;43.42;4.95;;;;;;;4.90;74.95;102874.00;5056315;28;20498;-63
2022/01/30 07:04:50;;;;;;;34.28;4.10;;;;;;;4.81;75.15;102879.69;5056185;28;20104;-62
2022/01/30 07:07:15;;;;;;;28.30;4.38;;;;;;;4.84;74.99;102876.94;5038895;28;20064;-61
2022/01/30 07:09:40;;;;;;;33.58;4.47;;;;;;;4.86;75.27;102878.50;5038544;28;20090;-62
2022/01/30 07:12:06;;;;;;;35.80;4.45;;;;;;;4.88;74.60;102874.06;5056752;28;20029;-62
2022/01/30 07:14:32;;;;;;;29.77;4.95;;;;;;;4.85;75.02;102881.94;5056324;28;20025;-61
2022/01/30 07:16:58;;;;;;;38.33;5.50;;;;;;;4.90;74.46;102887.63;5060184;28;20041;-64
2022/01/30 07:19:23;;;;;;;29.83;4.03;;;;;;;4.86;74.48;102893.88;5061339;28;20029;-63
2022/01/30 07:21:48;;;;;;;25.50;4.20;;;;;;;4.91;74.87;102896.13;5061196;28;20021;-63
2022/01/30 07:24:14;;;;;;;25.80;4.15;;;;;;;5.06;73.97;102902.81;5043875;28;20025;-63
2022/01/30 07:26:39;;;;;;;40.55;4.88;;;;;;;5.00;73.90;102915.22;5062383;28;20025;-64
2022/01/30 07:29:05;;;;;;;29.25;4.15;;;;;;;5.01;74.90;102927.13;5043865;28;20021;-65
2022/01/30 07:31:32;;;;;;;34.50;4.55;;;;;;;5.04;74.52;102920.06;5062264;28;20032;-66
2022/01/30 07:33:57;;;;;;;37.55;4.47;;;;;;;4.98;74.15;102923.81;5062696;28;20021;-65
2022/01/30 07:36:23;;;;;;;28.35;4.53;;;;;;;5.03;74.57;102931.19;5060700;28;20036;-62
2022/01/30 07:38:49;;;;;;;36.90;4.32;;;;;;;5.06;75.28;102928.44;5038872;28;20414;-61
2022/01/30 07:41:14;;;;;;;31.98;3.75;;;;;;;5.10;74.22;102935.03;5056900;28;20028;-64
2022/01/30 07:43:39;;;;;;;36.88;4.72;;;;;;;5.11;74.58;102938.41;5057116;28;20032;-62
2022/01/30 07:46:05;;;;;;;28.45;4.22;;;;;;;5.07;74.36;102942.91;5038742;28;20094;-63
2022/01/30 07:48:32;;;;;;;34.08;4.32;;;;;;;5.16;74.38;102949.19;5038602;28;20479;-62
2022/01/30 07:50:57;;;;;;;28.60;3.80;;;;;;;5.23;74.53;102942.75;5056255;28;20017;-61
2022/01/30 07:53:22;;;;;;;26.38;3.95;;;;;;;5.28;74.31;102947.59;5056075;28;20114;-62
2022/01/30 07:55:48;;;;;;;28.95;4.32;;;;;;;5.33;73.54;102945.56;5038216;28;20085;-61
2022/01/30 07:58:13;;;;;;;34.28;5.20;;;;;;;5.39;73.49;102947.72;5038007;28;20040;-61
2022/01/30 08:00:39;;;;;;;28.90;4.00;;;;;;;5.40;73.22;102947.59;5055631;28;20025;-61
2022/01/30 08:03:05;;;;;;;32.63;4.00;;;;;;;5.60;72.44;102961.69;5055587;28;20032;-63
2022/01/30 08:05:30;;;;;;;28.48;4.20;;;;;;;5.64;73.51;102947.75;5055626;28;20483;-62
2022/01/30 08:07:56;;;;;;;26.58;4.50;;;;;;;5.76;72.31;102945.31;5056150;28;20429;-64
2022/01/30 08:10:21;;;;;;;39.05;4.30;;;;;;;5.83;72.54;102942.19;5037933;28;20024;-62
2022/01/30 08:12:47;;;;;;;34.33;4.63;;;;;;;5.82;72.64;102940.56;5056139;28;20563;-62
2022/01/30 08:15:12;;;;;;;37.03;4.22;;;;;;;5.91;72.04;102938.31;5054824;28;20088;-62
2022/01/30 08:17:38;;;;;;;23.88;4.00;;;;;;;5.95;72.03;102943.16;5055270;28;20043;-61
2022/01/30 08:20:08;;;;;;;39.42;4.50;;;;;;;5.88;71.41;102932.47;5054702;28;20372;-61
2022/01/30 08:22:54;;;;;;;24.85;3.47;;;;;;;6.13;70.86;102932.56;5054358;28;20020;-62
2022/01/30 08:25:23;;;;;;;23.50;3.88;;;;;;;6.02;70.47;102933.31;5036305;28;20016;-62
2022/01/30 08:27:49;;;;;;;39.25;5.35;;;;;;;6.09;70.50;102927.63;5036219;28;20021;-61
2022/01/30 08:30:15;;;;;;;33.72;5.03;;;;;;;6.13;69.47;102930.00;5036153;28;20124;-63
2022/01/30 08:32:41;;;;;;;29.83;3.63;;;;;;;6.13;69.98;102930.84;5053917;28;20103;-61
2022/01/30 08:35:09;;;;;;;39.90;4.40;;;;;;;6.19;69.36;102947.56;5054031;28;20044;-63
2022/01/30 08:37:35;;;;;;;26.92;4.63;;;;;;;6.29;68.66;102946.81;5053953;28;20386;-62
2022/01/30 08:40:03;;;;;;;24.58;3.63;;;;;;;6.31;68.44;102944.16;5053980;28;20379;-63
2022/01/30 08:42:28;;;;;;;25.42;4.70;;;;;;;6.54;67.91;102958.78;5036149;28;20460;-62
2022/01/30 08:44:54;;;;;;;21.45;3.70;;;;;;;6.33;67.69;102948.25;5035897;28;20108;-62
2022/01/30 08:47:19;;;;;;;25.33;4.07;;;;;;;6.53;67.54;102961.44;5053484;28;20032;-62
2022/01/30 08:49:44;;;;;;;34.30;4.05;;;;;;;6.57;66.86;102956.94;5051756;28;20024;-62
2022/01/30 08:52:10;;;;;;;34.30;5.95;;;;;;;6.66;66.81;102967.38;5053001;28;20068;-62
2022/01/30 08:54:35;;;;;;;31.52;4.13;;;;;;;6.72;67.26;102966.94;5053222;28;20021;-62
2022/01/30 08:57:00;;;;;;;30.50;4.22;;;;;;;6.78;66.12;102966.50;5053465;28;20484;-61
2022/01/30 08:59:25;;;;;;;36.83;4.50;;;;;;;6.83;67.84;102970.53;5035470;28;20025;-61
2022/01/30 09:01:51;;;;;;;31.38;4.72;;;;;;;6.96;65.77;102976.41;5053636;28;20053;-62
2022/01/30 09:04:17;;;;;;;25.48;4.20;;;;;;;7.16;65.38;102978.41;5053481;28;20024;-61
2022/01/30 09:06:42;;;;;;;23.45;3.80;;;;;;;7.15;64.96;102976.75;5053872;28;20025;-61
2022/01/30 09:09:08;;;;;;;30.02;3.65;;;;;;;7.11;65.27;102983.06;5053315;28;20017;-62
2022/01/30 09:11:34;;;;;;;29.02;4.00;;;;;;;7.31;64.93;102985.91;5035291;28;20027;-62
2022/01/30 09:13:59;;;;;;;29.25;4.35;;;;;;;7.38;63.84;102982.78;5035229;28;20025;-62
2022/01/30 09:16:25;;;;;;;33.30;4.75;;;;;;;7.44;63.97;102986.66;5032059;28;20060;-61
2022/01/30 09:18:50;;;;;;;31.77;4.25;;;;;;;7.52;63.65;102988.69;5033687;28;20109;-63
2022/01/30 09:21:15;;;;;;;31.77;4.30;;;;;;;7.69;62.37;102988.28;5033362;28;20108;-61
2022/01/30 09:23:41;;;;;;;30.35;4.50;;;;;;;7.62;64.20;102993.06;5033390;28;20457;-62
2022/01/30 09:26:06;;;;;;;30.67;4.60;;;;;;;7.55;63.10;102980.75;5033733;28;20443;-62
2022/01/30 09:28:31;;;;;;;32.67;4.72;;;;;;;7.81;63.48;102997.66;5030813;28;20357;-62
2022/01/30 09:31:00;;;;;;;33.50;4.53;;;;;;;7.94;62.96;102978.69;5032527;28;20025;-62
2022/01/30 09:33:25;;;;;;;33.20;5.60;;;;;;;8.08;62.60;102996.50;5033270;28;20022;-61
2022/01/30 09:35:50;;;;;;;35.50;4.65;;;;;;;8.20;62.85;102999.91;5031278;28;20021;-62
2022/01/30 09:38:15;;;;;;;30.23;4.25;;;;;;;8.28;62.63;103000.13;5031619;28;20044;-63
2022/01/30 09:40:41;;;;;;;34.28;5.63;;;;;;;8.35;61.79;103009.88;5031980;28;20113;-63
2022/01/30 09:43:07;;;;;;;37.70;4.55;;;;;;;8.32;61.66;103012.69;5032575;28;20040;-63
2022/01/30 09:45:33;;;;;;;22.25;4.10;;;;;;;8.46;61.98;103023.69;5032965;28;20031;-63
2022/01/30 09:48:00;;;;;;;35.25;4.82;;;;;;;8.75;60.73;103026.63;5033026;28;20044;-63
2022/01/30 09:50:25;;;;;;;29.80;4.53;;;;;;;10.74;55.76;103037.84;5033069;28;20168;-64
2022/01/30 09:52:51;;;;;;;42.22;5.07;;;;;;;12.04;51.17;103035.75;5031159;28;20124;-63
2022/01/30 09:55:16;;;;;;;26.08;4.53;;;;;;;10.47;55.71;103038.41;5032974;28;20025;-64
2022/01/30 09:57:43;;;;;;;29.33;5.05;;;;;;;11.72;52.08;103040.28;5033486;28;20025;-61
2022/01/30 10:00:10;;;;;;;23.45;4.45;;;;;;;12.30;50.35;103051.47;5032192;28;20025;-64
2022/01/30 10:02:35;;;;;;;38.00;5.32;;;;;;;14.01;45.54;103049.66;5031808;28;20151;-64
2022/01/30 10:05:01;;;;;;;31.25;5.22;;;;;;;13.77;47.05;103050.31;5030298;28;20116;-62
2022/01/30 10:07:55;;;;;;;30.27;5.50;;;;;;;14.52;44.70;103049.75;5032273;28;20033;-64
2022/01/30 10:10:28;;;;;;;24.65;5.32;;;;;;;15.07;44.76;103054.41;5034358;28;20034;-64
2022/01/30 10:12:59;;;;;;;;;;;;;;;15.14;42.54;103052.00;5036288;28;20025;-64
2022/01/30 10:15:24;;;;;;;29.33;5.65;;;;;;;15.97;41.40;103051.78;5035135;28;20381;-62
2022/01/30 10:17:50;;;;;;;31.45;5.55;;;;;;;14.66;43.21;103056.94;5036856;28;20027;-63
2022/01/30 10:20:19;;;;;;;21.10;4.38;;;;;;;16.23;41.26;103057.56;5035235;28;20109;-63
2022/01/30 10:22:55;;;;;;;29.92;5.10;;;;;;;16.27;39.48;103057.22;5036618;28;20024;-63
2022/01/30 10:25:26;;;;;;;33.40;5.63;;;;;;;13.02;45.27;103055.03;5036930;28;20100;-62
2022/01/30 10:28:11;;;;;;;33.08;5.68;;;;;;;13.03;45.66;103051.47;5036928;28;20021;-63
2022/01/30 10:30:52;;;;;;;28.92;5.28;;;;;;;15.85;40.20;103063.53;5035298;28;20021;-64
2022/01/30 10:33:19;;;;;;;24.27;5.55;;;;;;;16.07;40.04;103065.44;5035314;28;20022;-63
2022/01/30 10:35:50;;;;;;;29.65;5.50;;;;;;;16.67;38.22;103070.06;5036476;28;20091;-63
2022/01/30 10:38:36;;;;;;;32.45;6.28;;;;;;;17.79;35.01;103056.50;5036275;28;20025;-63
2022/01/30 10:41:12;;;;;;;31.00;6.30;;;;;;;16.80;36.55;103051.28;5036286;28;20522;-64
2022/01/30 10:43:55;;;;;;;30.52;6.38;;;;;;;18.10;33.64;103048.50;5036131;28;20013;-65
2022/01/30 10:46:30;;;;;;;22.63;4.90;;;;;;;18.03;33.28;103053.63;5036398;28;20045;-64
2022/01/30 10:48:59;;;;;;;23.20;5.28;;;;;;;17.25;34.84;103051.44;5036497;28;20026;-64
2022/01/30 10:51:26;;;;;;;28.17;5.70;;;;;;;18.02;33.35;103040.72;5035978;28;20032;-65
2022/01/30 10:53:51;;;;;;;28.20;5.63;;;;;;;18.90;30.96;103050.22;5036032;28;20025;-64
2022/01/30 10:56:24;;;;;;;24.70;4.63;;;;;;;18.43;31.09;103019.28;5036171;28;20056;-65
2022/01/30 10:59:12;;;;;;;28.23;5.78;;;;;;;19.12;30.45;103039.72;5036310;28;20029;-65
2022/01/30 11:01:45;;;;;;;31.00;5.75;;;;;;;18.41;32.20;103042.19;5036222;28;20384;-65
2022/01/30 11:04:25;;;;;;;26.42;5.78;;;;;;;18.29;31.67;103043.66;5034608;28;20021;-65
2022/01/30 11:06:51;;;;;;;30.25;5.95;;;;;;;18.08;31.64;103039.19;5035669;28;20025;-64
2022/01/30 11:09:23;;;;;;;25.30;5.05;;;;;;;16.69;34.55;103039.41;5035759;28;20030;-64
2022/01/30 11:12:00;;;;;;;30.63;5.20;;;;;;;18.95;30.38;103031.28;5034366;28;20491;-65
2022/01/30 11:17:10;;;;;;;25.90;5.72;;;;;;;16.99;33.83;103041.34;5035914;28;20103;-65
2022/01/30 11:19:38;;;;;;;23.38;4.68;;;;;;;16.49;35.48;103046.03;5034996;28;20080;-63
2022/01/30 11:22:06;;;;;;;29.85;6.10;;;;;;;16.96;33.98;103044.31;5034214;28;20028;-65
2022/01/30 11:24:38;;;;;;;25.98;5.88;;;;;;;17.84;32.72;103042.88;5035736;28;20148;-64
2022/01/30 11:27:04;;;;;;;;;;;;;;;18.65;31.22;103044.50;5036091;28;20017;-66
2022/01/30 11:29:35;;;;;;;27.27;5.80;;;;;;;15.01;37.19;103048.06;5034062;28;20343;-64
2022/01/30 11:32:04;;;;;;;30.23;5.97;;;;;;;11.81;44.18;103009.34;5036013;28;20025;-64
2022/01/30 11:34:30;;;;;;;28.92;5.97;;;;;;;12.71;42.69;103034.63;5035228;28;20021;-64
2022/01/30 11:36:56;;;;;;;27.05;7.38;;;;;;;13.62;41.51;103029.28;5035131;28;20132;-64
2022/01/30 11:39:22;;;;;;;30.20;5.68;;;;;;;11.88;45.75;103028.56;5033870;28;20035;-63
2022/01/30 11:42:25;;;;;;;30.80;5.72;;;;;;;13.14;43.67;103033.09;5034993;28;20017;-63
2022/01/30 11:45:11;;;;;;;35.97;5.57;;;;;;;11.93;45.69;103031.56;4974222;28;20431;-63
2022/01/30 11:48:15;;;;;;;33.17;4.97;;;;;;;10.03;50.12;102986.13;5032420;28;20037;-64
2022/01/30 11:50:42;;;;;;;33.35;5.30;;;;;;;11.34;46.89;103024.81;5026056;28;20499;-63
2022/01/30 11:53:07;;;;;;;32.30;5.32;;;;;;;11.25;48.34;103023.88;5034949;28;20026;-63
2022/01/30 11:55:42;;;;;;;27.02;4.72;;;;;;;13.18;44.30;103021.47;5034887;28;20116;-66
2022/01/30 11:58:30;;;;;;;28.30;4.72;;;;;;;11.28;47.75;103029.59;5035117;28;20048;-63
2022/01/30 12:00:57;;;;;;;28.80;5.03;;;;;;;9.90;49.04;103032.84;5033380;28;20018;-62
2022/01/30 12:03:26;;;;;;;32.38;4.63;;;;;;;11.20;45.75;103036.41;5034705;28;20477;-63
2022/01/30 12:05:52;;;;;;;29.63;5.35;;;;;;;13.89;39.86;103033.50;5034859;28;20128;-65
2022/01/30 12:08:44;;;;;;;22.73;4.60;;;;;;;12.24;41.96;103034.72;5033332;28;20027;-64
2022/01/30 12:11:34;;;;;;;30.77;4.70;;;;;;;10.45;48.08;103027.41;5034338;28;20096;-62
2022/01/30 12:14:21;;;;;;;28.27;4.43;;;;;;;9.84;52.06;103023.84;5035249;28;20082;-62
2022/01/30 12:16:48;;;;;;;30.35;5.18;;;;;;;9.41;51.49;103032.50;5052639;28;20052;-65
2022/01/30 12:19:18;;;;;;;32.17;5.38;;;;;;;9.01;53.50;103037.47;5036431;28;20029;-63
2022/01/30 12:21:44;;;;;;;38.55;5.43;;;;;;;9.41;53.80;103021.38;5054278;28;20032;-62
2022/01/30 12:24:31;;;;;;;26.63;4.90;;;;;;;13.75;43.70;103013.28;5036350;28;20024;-65